»·PEaware :: SWA4870 KSMF-KBUR

SWA4870 :: KSMF-KBUR

FLIGHT INFORMATION

Flight Status: Arrived
Operator:
Southwest Airlines
More flights by this operator :: More flights under this callsign
Pilot: Anonymous 10623 (10623)
Aircraft: BOEING 737-700
(B737)
More flights by this aircraft type
Origin: KSMF Sacramento Intl
United States
Destination: KBUR Bob Hope-Burbank
United States
More flights between these airports :: More routes between these airports
Route: FTHIL3 FRA REBRG ROKKR2
File this flight plan on PilotEdge
Remarks:
Altitude:
(Current/Filed)
39,000ft
Speed:
(Current/Filed)
424kts
Departed: 13-Jan-21 01:27 PM
Arrived: 13-Jan-21 02:21 PM
Distance/Time
Traveled:
312nm/0:54
Distance/Time
To Go:
Arrived

Flight Plot

Page will automatically refresh every two minutes.

Flight plan parsing failed; only flown route is shown


Map Options




Map Legend


Flown Route
Filed Route
Departure Airport
Arrival Airport
Navaid (VOR, NDB)
Fix

Horizontal Profiles

Position Reports

Time Latitude Longitude Heading Altitude Ground
Speed
13-Jan-21 12:48 38.693156 -121.587648 87 36ft 0kts
13-Jan-21 12:49 38.693156 -121.587648 87 36ft 0kts
13-Jan-21 12:57 38.693156 -121.587648 87 36ft 0kts
13-Jan-21 12:58 38.693156 -121.587648 87 36ft 0kts
13-Jan-21 12:59 38.693156 -121.587648 87 36ft 0kts
13-Jan-21 13:00 38.693156 -121.587648 87 36ft 0kts
13-Jan-21 13:01 38.693156 -121.587648 87 36ft 0kts
13-Jan-21 13:02 38.693156 -121.587648 87 36ft 0kts
13-Jan-21 13:03 38.693156 -121.587648 87 36ft 0kts
13-Jan-21 13:04 38.693156 -121.587648 87 36ft 0kts
13-Jan-21 13:05 38.693156 -121.587648 87 36ft 0kts
13-Jan-21 13:06 38.693156 -121.587648 87 36ft 0kts
13-Jan-21 13:07 38.693156 -121.587648 87 36ft 0kts
13-Jan-21 13:08 38.693156 -121.587648 87 36ft 0kts
13-Jan-21 13:09 38.693156 -121.587648 87 36ft 0kts
13-Jan-21 13:10 38.693156 -121.587648 87 36ft 0kts
13-Jan-21 13:11 38.693156 -121.587648 87 36ft 0kts
13-Jan-21 13:12 38.693156 -121.587648 87 36ft 0kts
13-Jan-21 13:13 38.693156 -121.587648 87 36ft 0kts
13-Jan-21 13:14 38.693156 -121.587648 87 36ft 0kts
13-Jan-21 13:15 38.693668 -121.588240 167 36ft 3kts
13-Jan-21 13:16 38.694049 -121.588701 120 36ft 0kts
13-Jan-21 13:17 38.694049 -121.588701 120 36ft 0kts
13-Jan-21 13:18 38.694049 -121.588701 120 36ft 0kts
13-Jan-21 13:19 38.694029 -121.588659 120 36ft 4kts
13-Jan-21 13:20 38.696202 -121.588159 79 36ft 9kts
13-Jan-21 13:21 38.696153 -121.583937 89 36ft 10kts
13-Jan-21 13:22 38.698528 -121.582920 0 36ft 20kts
13-Jan-21 13:23 38.703910 -121.582767 1 36ft 17kts
13-Jan-21 13:24 38.707021 -121.581463 86 36ft 7kts
13-Jan-21 13:25 38.707020 -121.580498 98 36ft 10kts
13-Jan-21 13:26 38.700498 -121.580149 180 36ft 103kts
13-Jan-21 13:27 38.660962 -121.577017 155 1537ft 169kts
13-Jan-21 13:28 38.625632 -121.520376 123 2712ft 244kts
13-Jan-21 13:29 38.585564 -121.441869 123 5674ft 273kts
13-Jan-21 13:30 38.542694 -121.358022 123 9076ft 291kts
13-Jan-21 13:31 38.494742 -121.264485 124 11353ft 353kts
13-Jan-21 13:32 38.437119 -121.151386 124 13946ft 394kts
13-Jan-21 13:33 38.375375 -121.030566 125 17049ft 420kts
13-Jan-21 13:34 38.309573 -120.902818 125 20009ft 442kts
13-Jan-21 13:35 38.240434 -120.769158 125 22690ft 460kts
13-Jan-21 13:36 38.168862 -120.630774 125 24947ft 477kts
13-Jan-21 13:37 38.094075 -120.487848 125 26906ft 494kts
13-Jan-21 13:38 38.015402 -120.341971 127 28623ft 507kts
13-Jan-21 13:39 37.924798 -120.203366 144 30121ft 512kts
13-Jan-21 13:40 37.803790 -120.109747 155 31570ft 512kts
13-Jan-21 13:42 37.681448 -120.020170 155 33424ft 505kts
13-Jan-21 13:43 37.561067 -119.930732 155 34966ft 501kts
13-Jan-21 13:44 37.441455 -119.842377 155 36340ft 497kts
13-Jan-21 13:45 37.322488 -119.754611 155 37538ft 493kts
13-Jan-21 13:46 37.204201 -119.668089 155 38589ft 491kts
13-Jan-21 13:47 37.082075 -119.600995 178 39420ft 471kts
13-Jan-21 13:48 36.953142 -119.597618 187 39434ft 461kts
13-Jan-21 13:49 36.824679 -119.600006 187 39431ft 462kts
13-Jan-21 13:50 36.695873 -119.602330 187 39431ft 463kts
13-Jan-21 13:51 36.566839 -119.604637 187 39436ft 464kts
13-Jan-21 13:52 36.437876 -119.606931 187 39439ft 465kts
13-Jan-21 13:53 36.308700 -119.609222 186 39439ft 465kts
13-Jan-21 13:54 36.179149 -119.611517 186 39439ft 464kts
13-Jan-21 13:55 36.049902 -119.613790 186 39435ft 465kts
13-Jan-21 13:56 35.922030 -119.626841 195 39427ft 459kts
13-Jan-21 13:57 35.795898 -119.652622 195 38292ft 461kts
13-Jan-21 13:58 35.668538 -119.675839 188 35405ft 468kts
13-Jan-21 13:58 35.559051 -119.666840 177 32953ft 474kts
13-Jan-21 14:00 35.409273 -119.636639 168 30247ft 462kts
13-Jan-21 14:01 35.290738 -119.601102 170 28016ft 448kts
13-Jan-21 14:02 35.178212 -119.540348 144 25694ft 445kts
13-Jan-21 14:02 35.103151 -119.467379 143 23912ft 437kts
13-Jan-21 14:03 35.008204 -119.378312 144 21675ft 425kts
13-Jan-21 14:05 34.890417 -119.296411 152 18871ft 416kts
13-Jan-21 14:05 34.808112 -119.241570 152 17015ft 395kts
13-Jan-21 14:06 34.720235 -119.183832 151 14990ft 386kts
13-Jan-21 14:07 34.632034 -119.126218 151 13374ft 363kts
13-Jan-21 14:08 34.549583 -119.072633 148 12034ft 334kts
13-Jan-21 14:09 34.477592 -119.008196 140 10709ft 313kts
13-Jan-21 14:10 34.411203 -118.945316 138 9488ft 294kts
13-Jan-21 14:11 34.350242 -118.883135 134 8417ft 281kts
13-Jan-21 14:12 34.292918 -118.819574 135 7402ft 276kts
13-Jan-21 14:13 34.249762 -118.745922 110 6345ft 273kts
13-Jan-21 14:14 34.222580 -118.670028 112 5324ft 230kts
13-Jan-21 14:15 34.200966 -118.604370 95 3935ft 203kts
13-Jan-21 14:16 34.200168 -118.537144 89 3404ft 204kts
13-Jan-21 14:17 34.199369 -118.476663 89 2467ft 155kts
13-Jan-21 14:18 34.198417 -118.427971 92 1705ft 138kts
13-Jan-21 14:19 34.198019 -118.382452 90 1042ft 131kts
13-Jan-21 14:20 34.197616 -118.353505 93 729ft 11kts
13-Jan-21 14:21 34.197064 -118.351946 174 729ft 2kts
13-Jan-21 14:22 34.196794 -118.351946 183 729ft 0kts
13-Jan-21 14:23 34.196794 -118.351946 183 729ft 0kts

Navigation Log

Ident Type
Flight plan parsing failed, navigation log unavailable